Time;durP1;ratioP1;P1;durP2;ratioP2;P2;SDS_P1;SDS_P2;PMS_P1;PMS_P2;Temp;Humidity;BMP_temperature;BMP_pressure;BME280_temperature;BME280_humidity;BME280_pressure;Samples;Min_cycle;Max_cycle;Signal;HPM_P1;HPM_P2
2022/10/06 00:00:49;;;;;;;6.95;1.40;;;13.80;99.90;;;;;;5029486;28;20041;-66
2022/10/06 00:03:16;;;;;;;9.88;1.40;;;13.70;99.90;;;;;;5026279;28;20049;-66
2022/10/06 00:05:42;;;;;;;5.72;1.30;;;13.70;99.90;;;;;;5031930;28;20037;-64
2022/10/06 00:08:08;;;;;;;5.35;1.15;;;13.70;99.90;;;;;;5033421;28;20438;-64
2022/10/06 00:10:34;;;;;;;4.65;1.20;;;13.70;99.90;;;;;;5022302;28;20496;-64
2022/10/06 00:13:00;;;;;;;4.72;1.48;;;13.70;99.90;;;;;;5025907;28;20120;-64
2022/10/06 00:15:29;;;;;;;5.03;1.40;;;13.70;99.90;;;;;;5032617;28;20551;-64
2022/10/06 00:17:56;;;;;;;4.30;1.40;;;13.70;99.90;;;;;;5022164;28;20042;-64
2022/10/06 00:20:23;;;;;;;6.43;1.73;;;13.70;99.90;;;;;;5028635;28;20053;-64
2022/10/06 00:22:48;;;;;;;4.95;1.20;;;13.70;99.90;;;;;;5024358;28;20042;-66
2022/10/06 00:25:20;;;;;;;5.35;1.73;;;13.70;99.90;;;;;;5033032;28;20125;-66
2022/10/06 00:27:48;;;;;;;5.85;1.40;;;13.70;99.90;;;;;;5022610;28;20491;-65
2022/10/06 00:30:17;;;;;;;5.13;1.40;;;13.70;99.90;;;;;;5032111;28;20080;-66
2022/10/06 00:32:51;;;;;;;6.80;1.60;;;13.70;99.90;;;;;;5032032;28;20087;-65
2022/10/06 00:35:16;;;;;;;3.97;1.67;;;13.70;99.90;;;;;;5028250;28;20037;-66
2022/10/06 00:37:42;;;;;;;5.15;1.48;;;13.60;99.90;;;;;;5033141;28;20403;-65
2022/10/06 00:40:09;;;;;;;7.75;1.40;;;13.70;99.90;;;;;;5032186;28;20042;-65
2022/10/06 00:42:55;;;;;;;5.32;1.30;;;13.70;99.90;;;;;;5027288;28;20490;-66
2022/10/06 00:45:28;;;;;;;4.05;1.40;;;13.70;99.90;;;;;;5029375;28;20076;-66
2022/10/06 00:47:58;;;;;;;3.70;1.40;;;13.70;99.90;;;;;;5012867;28;20077;-66
2022/10/06 00:50:24;;;;;;;7.65;1.60;;;13.60;99.90;;;;;;5013899;28;20068;-64
2022/10/06 00:52:49;;;;;;;3.20;1.45;;;13.40;99.90;;;;;;5031233;28;20041;-65
2022/10/06 00:55:15;;;;;;;7.15;1.50;;;13.40;99.90;;;;;;5032046;28;20037;-66
2022/10/06 00:57:41;;;;;;;8.35;1.55;;;13.30;99.90;;;;;;5032210;28;20041;-65
2022/10/06 01:00:08;;;;;;;8.38;1.80;;;13.30;99.90;;;;;;5010088;28;20135;-66
2022/10/06 01:02:46;;;;;;;4.55;1.40;;;13.30;99.90;;;;;;5023828;28;20045;-65
2022/10/06 01:05:19;;;;;;;4.40;1.50;;;13.20;99.90;;;;;;5031952;28;20037;-64
2022/10/06 01:07:44;;;;;;;6.78;1.95;;;13.10;99.90;;;;;;5022203;28;20037;-64
2022/10/06 01:10:10;;;;;;;4.35;1.50;;;13.10;99.90;;;;;;5020658;28;20041;-65
2022/10/06 01:12:36;;;;;;;5.82;1.73;;;13.10;99.90;;;;;;5031371;28;20069;-65
2022/10/06 01:15:03;;;;;;;6.75;1.73;;;13.00;99.90;;;;;;5031776;28;20037;-65
2022/10/06 01:17:51;;;;;;;6.38;1.63;;;13.00;99.90;;;;;;5015957;28;20041;-65
2022/10/06 01:20:18;;;;;;;6.10;1.90;;;13.00;99.90;;;;;;5009389;28;20392;-66
2022/10/06 01:22:49;;;;;;;7.15;1.60;;;13.00;99.90;;;;;;5031020;28;20037;-65
2022/10/06 01:25:16;;;;;;;8.93;1.90;;;13.00;99.90;;;;;;5020315;28;20037;-65
2022/10/06 01:27:45;;;;;;;9.93;1.60;;;13.00;99.90;;;;;;5028580;28;20041;-64
2022/10/06 01:30:18;;;;;;;10.27;2.13;;;13.00;99.90;;;;;;5031168;28;20041;-66
2022/10/06 01:32:44;;;;;;;6.00;1.83;;;13.00;99.90;;;;;;5006103;28;20088;-64
2022/10/06 01:35:10;;;;;;;5.93;1.83;;;12.90;99.90;;;;;;5027393;28;20095;-64
2022/10/06 01:37:36;;;;;;;8.10;1.80;;;12.90;99.90;;;;;;5030893;28;20395;-64
2022/10/06 01:40:02;;;;;;;6.90;1.73;;;12.90;99.90;;;;;;5025017;28;20033;-64
2022/10/06 01:42:30;;;;;;;9.60;2.00;;;12.80;99.90;;;;;;5006395;28;20042;-65
2022/10/06 01:44:56;;;;;;;8.57;1.85;;;12.90;99.90;;;;;;5030894;28;20033;-64
2022/10/06 01:47:22;;;;;;;7.82;1.88;;;12.90;99.90;;;;;;5031003;28;20037;-64
2022/10/06 01:49:47;;;;;;;7.70;2.05;;;12.90;99.90;;;;;;5026450;28;20029;-65
2022/10/06 01:52:13;;;;;;;6.72;1.88;;;12.90;99.90;;;;;;5024950;28;20755;-64
2022/10/06 01:54:39;;;;;;;10.00;1.90;;;12.80;99.90;;;;;;5030844;28;20045;-65
2022/10/06 01:57:07;;;;;;;17.02;1.98;;;12.80;99.90;;;;;;5025492;28;20037;-65
2022/10/06 01:59:33;;;;;;;4.75;1.90;;;12.80;99.90;;;;;;5016785;28;20038;-66
2022/10/06 02:01:58;;;;;;;6.85;1.75;;;12.80;99.90;;;;;;5030333;28;20454;-64
2022/10/06 02:04:24;;;;;;;9.93;1.80;;;12.70;99.90;;;;;;5030480;28;20044;-65
2022/10/06 02:06:50;;;;;;;7.43;2.10;;;12.70;99.90;;;;;;5028067;28;20049;-62
2022/10/06 02:09:16;;;;;;;5.72;1.92;;;12.60;99.90;;;;;;5021568;28;20117;-65
2022/10/06 02:11:42;;;;;;;9.85;2.10;;;12.60;99.90;;;;;;5029746;28;20037;-65
2022/10/06 02:14:08;;;;;;;8.20;1.98;;;12.60;99.90;;;;;;5025699;28;20092;-64
2022/10/06 02:16:34;;;;;;;8.43;2.15;;;12.60;99.90;;;;;;5029787;28;20562;-65
2022/10/06 02:18:59;;;;;;;7.70;2.00;;;12.60;99.90;;;;;;5030018;28;20033;-66
2022/10/06 02:21:25;;;;;;;7.25;1.90;;;12.60;99.90;;;;;;5030647;28;20819;-64
2022/10/06 02:23:50;;;;;;;8.38;2.35;;;12.60;99.90;;;;;;5026095;28;20029;-64
2022/10/06 02:26:17;;;;;;;8.38;1.80;;;12.70;99.90;;;;;;5027693;28;20055;-64
2022/10/06 02:28:45;;;;;;;10.35;2.22;;;12.70;99.90;;;;;;5030564;28;20038;-64
2022/10/06 02:31:12;;;;;;;13.02;2.53;;;12.70;99.90;;;;;;5019981;28;20491;-64
2022/10/06 02:33:38;;;;;;;12.65;2.20;;;12.70;99.90;;;;;;5029366;28;20103;-65
2022/10/06 02:36:05;;;;;;;11.35;2.47;;;12.70;99.90;;;;;;5030377;28;20116;-64
2022/10/06 02:38:31;;;;;;;9.40;2.05;;;12.80;99.90;;;;;;5030324;28;20042;-65
2022/10/06 02:41:03;;;;;;;11.10;2.45;;;12.80;99.90;;;;;;5026586;28;20044;-64
2022/10/06 02:43:30;;;;;;;7.18;2.00;;;12.70;99.90;;;;;;5026932;28;20661;-64
2022/10/06 02:46:14;;;;;;;9.93;2.30;;;12.70;99.90;;;;;;5030365;28;20041;-66
2022/10/06 02:48:40;;;;;;;13.00;2.75;;;12.70;99.90;;;;;;5017327;28;20124;-65
2022/10/06 02:51:17;;;;;;;6.85;1.92;;;12.70;99.90;;;;;;5024823;28;20112;-65
2022/10/06 02:53:45;;;;;;;12.18;2.30;;;12.60;99.90;;;;;;5039226;28;20041;-65
2022/10/06 02:56:16;;;;;;;13.93;2.13;;;12.60;99.90;;;;;;5045746;28;20076;-64
2022/10/06 02:58:43;;;;;;;;;;;12.50;99.90;;;;;;5024369;28;20150;-64
2022/10/06 03:01:09;;;;;;;12.23;2.47;;;12.50;99.90;;;;;;5029912;28;20394;-65
2022/10/06 03:03:35;;;;;;;7.95;2.15;;;12.50;99.90;;;;;;5026438;28;20088;-64
2022/10/06 03:06:21;;;;;;;6.85;1.85;;;12.40;99.90;;;;;;5023130;28;20041;-64
2022/10/06 03:08:51;;;;;;;11.18;2.05;;;12.30;99.90;;;;;;5029855;28;20029;-66
2022/10/06 03:11:19;;;;;;;8.77;1.95;;;12.30;99.90;;;;;;5027184;28;20042;-65
2022/10/06 03:13:49;;;;;;;8.20;1.85;;;12.30;99.90;;;;;;5023367;28;20111;-64
2022/10/06 03:16:38;;;;;;;8.93;2.10;;;12.20;99.90;;;;;;5029977;28;20033;-65
2022/10/06 03:19:05;;;;;;;7.80;1.90;;;12.20;99.90;;;;;;5027552;28;20045;-64
2022/10/06 03:21:33;;;;;;;12.88;2.65;;;12.20;99.90;;;;;;5004419;28;20125;-65
2022/10/06 03:23:59;;;;;;;8.93;1.70;;;12.10;99.90;;;;;;5029602;28;20047;-65
2022/10/06 03:26:37;;;;;;;11.20;1.90;;;12.10;99.90;;;;;;5015722;28;20037;-64
2022/10/06 03:29:03;;;;;;;11.50;1.98;;;12.10;99.90;;;;;;5049883;28;20029;-64
2022/10/06 03:31:29;;;;;;;10.00;2.28;;;12.00;99.90;;;;;;5023507;28;20491;-64
2022/10/06 03:33:55;;;;;;;9.50;1.80;;;11.90;99.90;;;;;;5021621;28;20067;-64
2022/10/06 03:36:23;;;;;;;16.00;2.60;;;11.90;99.90;;;;;;5029153;28;20046;-65
2022/10/06 03:38:49;;;;;;;8.07;1.65;;;11.90;99.90;;;;;;5017819;28;20042;-65
2022/10/06 03:41:37;;;;;;;9.85;2.20;;;11.80;99.90;;;;;;5033049;28;20063;-64
2022/10/06 03:44:03;;;;;;;11.50;2.00;;;11.80;99.90;;;;;;5033648;28;20034;-64
2022/10/06 03:46:31;;;;;;;9.45;2.13;;;11.80;99.90;;;;;;5023002;28;20045;-65
2022/10/06 03:48:58;;;;;;;14.55;1.70;;;11.80;99.90;;;;;;5031459;28;20029;-64
2022/10/06 03:51:30;;;;;;;7.43;1.88;;;11.80;99.90;;;;;;5033287;28;20052;-65
2022/10/06 03:53:57;;;;;;;12.55;1.80;;;11.80;99.90;;;;;;5027246;28;20038;-66
2022/10/06 03:56:28;;;;;;;11.40;2.05;;;11.70;99.90;;;;;;5032420;28;20120;-65
2022/10/06 03:58:56;;;;;;;9.48;2.05;;;11.60;99.90;;;;;;5025276;28;20041;-65
2022/10/06 04:01:29;;;;;;;11.77;2.20;;;11.60;99.90;;;;;;5032671;28;20041;-64
2022/10/06 04:03:56;;;;;;;8.48;2.20;;;11.60;99.90;;;;;;5009045;28;20164;-64
2022/10/06 04:06:22;;;;;;;8.23;1.65;;;11.50;99.90;;;;;;5023219;28;20044;-63
2022/10/06 04:08:49;;;;;;;10.02;2.15;;;11.50;99.90;;;;;;5032752;28;20044;-64
2022/10/06 04:11:16;;;;;;;10.02;2.00;;;11.50;99.90;;;;;;5020967;28;20123;-64
2022/10/06 04:13:43;;;;;;;11.18;1.83;;;11.40;99.90;;;;;;5028818;28;20049;-65
2022/10/06 04:16:17;;;;;;;10.00;1.98;;;11.30;99.90;;;;;;5032910;28;20484;-65
2022/10/06 04:18:45;;;;;;;9.60;1.90;;;11.20;99.90;;;;;;5032908;28;20120;-64
2022/10/06 04:21:12;;;;;;;9.63;2.10;;;11.20;99.90;;;;;;5020719;28;20053;-64
2022/10/06 04:23:38;;;;;;;11.07;2.15;;;11.10;99.90;;;;;;5030668;28;20117;-65
2022/10/06 04:26:12;;;;;;;11.02;2.17;;;11.00;99.90;;;;;;5032839;28;20113;-65
2022/10/06 04:28:39;;;;;;;12.05;2.38;;;10.90;99.90;;;;;;5009896;28;20037;-65
2022/10/06 04:31:11;;;;;;;12.13;2.13;;;10.90;99.90;;;;;;5031710;28;20531;-65
2022/10/06 04:33:37;;;;;;;11.55;2.00;;;10.80;99.90;;;;;;5032630;28;20044;-66
2022/10/06 04:36:05;;;;;;;12.02;2.20;;;10.80;99.90;;;;;;5028492;28;20046;-65
2022/10/06 04:38:34;;;;;;;9.50;2.00;;;10.80;99.90;;;;;;5030794;28;20100;-65
2022/10/06 04:41:12;;;;;;;11.63;2.10;;;10.80;99.90;;;;;;5031745;28;20037;-65
2022/10/06 04:43:37;;;;;;;13.30;2.45;;;10.80;99.90;;;;;;5028096;28;20439;-65
2022/10/06 04:46:03;;;;;;;11.80;2.25;;;10.80;99.90;;;;;;5020697;28;20026;-65
2022/10/06 04:48:30;;;;;;;8.98;1.98;;;10.70;99.90;;;;;;5029161;28;20501;-66
2022/10/06 04:51:01;;;;;;;12.13;2.05;;;10.70;99.90;;;;;;5031621;28;20075;-65
2022/10/06 04:53:28;;;;;;;12.02;2.03;;;10.70;99.90;;;;;;5010514;28;20042;-65
2022/10/06 04:56:10;;;;;;;11.65;2.70;;;10.70;99.90;;;;;;5027058;28;20089;-65
2022/10/06 04:58:38;;;;;;;12.02;2.38;;;10.60;99.90;;;;;;5031650;28;20112;-65
2022/10/06 05:01:15;;;;;;;11.52;2.08;;;10.60;99.90;;;;;;5022794;28;20034;-65
2022/10/06 05:03:41;;;;;;;12.68;2.42;;;10.50;99.90;;;;;;5028893;28;20041;-64
2022/10/06 05:06:23;;;;;;;12.63;2.63;;;10.50;99.90;;;;;;5032258;28;20069;-65
2022/10/06 05:08:49;;;;;;;;;;;10.50;99.90;;;;;;5027260;28;20037;-64
2022/10/06 05:11:15;;;;;;;9.30;2.00;;;10.40;99.90;;;;;;5031309;28;19965;-64
2022/10/06 05:13:42;;;;;;;9.05;2.67;;;10.40;99.90;;;;;;5013603;28;20130;-65
2022/10/06 05:16:11;;;;;;;13.52;2.03;;;10.30;99.90;;;;;;5018233;28;20041;-65
2022/10/06 05:18:37;;;;;;;8.70;2.10;;;10.30;99.90;;;;;;5015512;28;20120;-65
2022/10/06 05:21:16;;;;;;;10.77;2.63;;;10.30;99.90;;;;;;5025708;28;20508;-65
2022/10/06 05:23:43;;;;;;;8.23;2.10;;;10.30;99.90;;;;;;5029284;28;20045;-64
2022/10/06 05:26:11;;;;;;;12.20;2.40;;;10.30;99.90;;;;;;5022773;28;20546;-64
2022/10/06 05:28:37;;;;;;;6.90;1.98;;;10.20;99.90;;;;;;5023123;28;20042;-64
2022/10/06 05:31:06;;;;;;;10.48;2.15;;;10.30;99.90;;;;;;5019817;28;20048;-63
2022/10/06 05:33:34;;;;;;;11.65;2.30;;;10.30;99.90;;;;;;5022780;28;20067;-64
2022/10/06 05:36:03;;;;;;;11.02;2.10;;;10.30;99.90;;;;;;5027938;28;20103;-63
2022/10/06 05:38:28;;;;;;;12.95;2.30;;;10.30;99.90;;;;;;5028816;28;20037;-64
2022/10/06 05:41:32;;;;;;;13.90;2.95;;;10.30;99.90;;;;;;5015760;28;20038;-64
2022/10/06 05:43:58;;;;;;;10.20;2.17;;;10.30;99.90;;;;;;4990590;28;20118;-62
2022/10/06 05:46:30;;;;;;;12.77;2.30;;;10.20;99.90;;;;;;5031211;28;20456;-63
2022/10/06 05:49:06;;;;;;;9.38;2.33;;;10.20;99.90;;;;;;5028262;28;20041;-62
2022/10/06 05:51:33;;;;;;;15.35;2.30;;;10.20;99.90;;;;;;5017161;28;20050;-63
2022/10/06 05:54:00;;;;;;;10.88;2.13;;;10.20;99.90;;;;;;5028673;28;20059;-62
2022/10/06 05:56:27;;;;;;;13.80;2.28;;;10.20;99.90;;;;;;5031012;28;20041;-62
2022/10/06 05:58:55;;;;;;;9.35;2.17;;;10.20;99.90;;;;;;5031294;28;20041;-63
2022/10/06 06:01:26;;;;;;;14.13;2.22;;;10.20;99.90;;;;;;5017287;28;20438;-63
2022/10/06 06:03:54;;;;;;;16.25;2.40;;;10.20;99.90;;;;;;5030079;28;20112;-62
2022/10/06 06:06:21;;;;;;;10.25;2.10;;;10.20;99.90;;;;;;5030897;28;20087;-63
2022/10/06 06:08:50;;;;;;;13.00;2.10;;;10.20;99.90;;;;;;5013593;28;20034;-64
2022/10/06 06:11:16;;;;;;;9.98;2.03;;;10.20;99.90;;;;;;5027681;28;20179;-63
2022/10/06 06:13:41;;;;;;;11.55;2.22;;;10.20;99.90;;;;;;5030445;28;20121;-64
2022/10/06 06:16:12;;;;;;;15.32;2.35;;;10.20;99.90;;;;;;5030758;28;20041;-64
2022/10/06 06:18:38;;;;;;;7.65;1.90;;;10.30;99.90;;;;;;5021990;28;20045;-64
2022/10/06 06:21:06;;;;;;;10.65;2.28;;;10.30;99.90;;;;;;5029543;28;20033;-63
2022/10/06 06:23:34;;;;;;;14.30;2.50;;;10.30;99.90;;;;;;5027253;28;20411;-64
2022/10/06 06:26:02;;;;;;;12.50;2.58;;;10.30;99.90;;;;;;5025116;28;20042;-63
2022/10/06 06:28:28;;;;;;;13.73;2.13;;;10.30;99.90;;;;;;5030042;28;20033;-65
2022/10/06 06:30:59;;;;;;;13.50;2.70;;;10.30;99.90;;;;;;5023004;28;20064;-65
2022/10/06 06:33:24;;;;;;;14.13;2.20;;;10.40;99.90;;;;;;5022610;28;20052;-65
2022/10/06 06:35:50;;;;;;;10.32;2.40;;;10.50;99.90;;;;;;5030715;28;20407;-65
2022/10/06 06:38:15;;;;;;;15.45;2.67;;;10.50;99.90;;;;;;5030557;28;20099;-65
2022/10/06 06:40:41;;;;;;;10.43;1.90;;;10.50;99.90;;;;;;5019496;28;20048;-64
2022/10/06 06:43:06;;;;;;;16.98;2.65;;;10.60;99.90;;;;;;5024010;28;20081;-65
2022/10/06 06:45:32;;;;;;;8.77;1.92;;;10.70;99.90;;;;;;5029063;28;20056;-64
2022/10/06 06:47:58;;;;;;;16.05;3.13;;;10.70;99.90;;;;;;5012670;28;20460;-64
2022/10/06 06:50:23;;;;;;;14.05;1.90;;;10.70;99.90;;;;;;5013975;28;20061;-65
2022/10/06 06:52:49;;;;;;;12.55;2.13;;;10.80;99.90;;;;;;5022584;28;20084;-65
2022/10/06 06:55:14;;;;;;;16.10;2.40;;;10.80;99.90;;;;;;5030247;28;20041;-64
2022/10/06 06:57:41;;;;;;;11.80;2.45;;;10.90;99.90;;;;;;5024460;28;20467;-65
2022/10/06 07:00:07;;;;;;;8.25;2.25;;;10.90;99.90;;;;;;5029650;28;20060;-65
2022/10/06 07:02:33;;;;;;;10.15;2.40;;;11.00;99.90;;;;;;5029225;28;20618;-65
2022/10/06 07:04:59;;;;;;;11.73;2.00;;;11.10;99.90;;;;;;5012514;28;20045;-65
2022/10/06 07:07:24;;;;;;;14.00;1.90;;;11.20;99.90;;;;;;5019389;28;20034;-64
2022/10/06 07:09:50;;;;;;;11.20;2.13;;;11.20;99.90;;;;;;5021711;28;20232;-65
2022/10/06 07:12:15;;;;;;;11.68;2.53;;;11.40;99.90;;;;;;5030132;28;20048;-65
2022/10/06 07:25:05;;;;;;;7.63;2.00;;;11.40;99.90;;;;;;5019123;28;20037;-65
2022/10/06 07:25:39;;;;;;;17.17;3.30;;;11.80;99.90;;;;;;5016194;28;20143;-64
2022/10/06 07:28:06;;;;;;;17.73;2.15;;;11.80;99.90;;;;;;5045642;28;20068;-64
2022/10/06 07:30:32;;;;;;;10.50;1.95;;;11.90;99.90;;;;;;5028205;28;20113;-65
2022/10/06 07:32:57;;;;;;;11.57;2.10;;;12.00;99.90;;;;;;5027232;28;20814;-65
2022/10/06 07:35:23;;;;;;;13.48;2.45;;;12.00;99.90;;;;;;5027691;28;20052;-64
2022/10/06 07:37:50;;;;;;;14.88;1.88;;;12.10;99.90;;;;;;5032412;28;20044;-63
2022/10/06 07:40:16;;;;;;;11.50;2.17;;;12.20;99.90;;;;;;5032636;28;20041;-65
2022/10/06 07:42:50;;;;;;;14.02;2.58;;;12.20;99.90;;;;;;5033233;28;20391;-65
2022/10/06 07:48:01;;;;;;;13.95;2.42;;;12.40;99.90;;;;;;5021053;28;20039;-67
2022/10/06 07:50:26;;;;;;;12.27;2.20;;;12.60;99.90;;;;;;5024081;28;20033;-65
2022/10/06 07:52:52;;;;;;;12.63;2.00;;;12.70;99.90;;;;;;5025562;28;20029;-65
2022/10/06 07:55:18;;;;;;;8.60;1.85;;;12.70;99.90;;;;;;5027024;28;20037;-65
2022/10/06 07:57:45;;;;;;;13.80;2.67;;;12.80;99.90;;;;;;5032876;28;20111;-65
2022/10/06 08:00:14;;;;;;;17.60;2.20;;;12.90;99.90;;;;;;5030184;28;20037;-63
2022/10/06 08:02:41;;;;;;;12.00;2.35;;;12.90;99.90;;;;;;5029506;28;20116;-64
2022/10/06 08:05:07;;;;;;;18.13;2.40;;;13.00;99.90;;;;;;5021679;28;20120;-65
2022/10/06 08:07:33;;;;;;;8.77;1.85;;;13.00;99.90;;;;;;5024793;28;20037;-65
2022/10/06 08:09:59;;;;;;;10.55;1.77;;;13.10;99.90;;;;;;5032764;28;20048;-65
2022/10/06 08:12:36;;;;;;;12.77;2.08;;;13.20;99.90;;;;;;5023490;28;20041;-64
2022/10/06 08:15:07;;;;;;;11.93;2.33;;;13.20;99.90;;;;;;5024860;28;20108;-66
2022/10/06 08:17:34;;;;;;;11.23;2.08;;;13.30;99.90;;;;;;5032544;28;20047;-66
2022/10/06 08:19:59;;;;;;;14.43;2.88;;;13.30;99.90;;;;;;5030506;28;20112;-66
2022/10/06 08:22:28;;;;;;;11.75;2.17;;;13.40;99.90;;;;;;5009968;28;20049;-64
2022/10/06 08:24:56;;;;;;;11.77;2.28;;;13.50;99.90;;;;;;5031594;28;20606;-66
2022/10/06 08:27:28;;;;;;;10.18;2.30;;;13.50;99.90;;;;;;5043724;28;20043;-65
2022/10/06 08:29:55;;;;;;;11.45;2.33;;;13.60;99.90;;;;;;5033493;28;20098;-65
2022/10/06 08:32:22;;;;;;;7.72;2.40;;;13.70;99.90;;;;;;5031772;28;20380;-64
2022/10/06 08:34:48;;;;;;;11.05;2.20;;;13.70;99.90;;;;;;5032207;28;20037;-64
2022/10/06 08:37:16;;;;;;;10.77;2.20;;;13.70;99.90;;;;;;5028500;28;20046;-65
2022/10/06 08:39:41;;;;;;;10.68;2.25;;;13.80;99.90;;;;;;5018282;28;20128;-65
2022/10/06 08:42:21;;;;;;;13.63;3.88;;;13.80;99.90;;;;;;5021708;28;20557;-65
2022/10/06 08:44:55;;;;;;;11.63;2.58;;;13.90;99.90;;;;;;5031616;28;20060;-65
2022/10/06 08:47:23;;;;;;;9.13;2.10;;;13.90;99.90;;;;;;5022339;28;20060;-66
2022/10/06 08:49:51;;;;;;;13.05;2.20;;;14.00;99.90;;;;;;5024661;28;20092;-65
2022/10/06 08:52:48;;;;;;;8.40;2.38;;;14.00;99.90;;;;;;5023186;28;20098;-65
2022/10/06 08:55:29;;;;;;;8.70;2.10;;;14.00;99.90;;;;;;5008903;28;20049;-65
2022/10/06 08:58:03;;;;;;;11.05;1.95;;;14.10;99.90;;;;;;5024464;28;20104;-65
2022/10/06 09:00:32;;;;;;;33.92;16.30;;;14.20;99.90;;;;;;5032124;28;20221;-65
2022/10/06 09:02:59;;;;;;;13.40;2.17;;;14.20;99.90;;;;;;5028125;28;20069;-65
2022/10/06 09:05:27;;;;;;;15.80;2.33;;;14.30;99.90;;;;;;5014005;28;20069;-64
2022/10/06 09:08:39;;;;;;;9.27;2.35;;;14.40;99.90;;;;;;5023030;28;20030;-65
2022/10/06 09:11:43;;;;;;;12.70;2.60;;;14.40;99.90;;;;;;5019611;28;20492;-65
2022/10/06 09:14:20;;;;;;;15.93;2.33;;;14.50;99.90;;;;;;5024639;28;20053;-65
2022/10/06 09:16:52;;;;;;;14.60;2.20;;;14.50;99.90;;;;;;5031348;28;20405;-64
2022/10/06 09:19:38;;;;;;;8.48;1.90;;;14.70;99.90;;;;;;5030788;28;20132;-63
2022/10/06 09:22:10;;;;;;;11.52;2.25;;;14.70;99.90;;;;;;5007833;28;20064;-64
2022/10/06 09:24:41;;;;;;;10.43;2.00;;;14.80;99.90;;;;;;5030695;28;20037;-65
2022/10/06 09:27:22;;;;;;;12.05;1.95;;;14.80;99.90;;;;;;5032179;28;20022;-65
2022/10/06 09:29:48;;;;;;;7.90;1.80;;;14.80;99.90;;;;;;5030061;28;20026;-64
2022/10/06 09:32:19;;;;;;;11.98;2.15;;;14.80;99.90;;;;;;5030331;28;20531;-63
2022/10/06 09:34:55;;;;;;;15.52;2.50;;;14.90;99.90;;;;;;5031624;28;20069;-65
2022/10/06 09:37:22;;;;;;;10.02;1.67;;;15.00;99.90;;;;;;5025958;28;20077;-64
2022/10/06 09:39:51;;;;;;;10.75;2.10;;;15.00;99.90;;;;;;5030277;28;20044;-64
2022/10/06 09:42:25;;;;;;;13.55;2.78;;;15.00;99.90;;;;;;5030852;28;20438;-64
2022/10/06 09:44:57;;;;;;;12.90;2.03;;;15.00;99.90;;;;;;5021294;28;20048;-64
2022/10/06 09:47:38;;;;;;;8.68;1.77;;;14.90;99.90;;;;;;5023636;28;20040;-63
2022/10/06 09:50:18;;;;;;;11.00;1.95;;;14.90;99.90;;;;;;5024882;28;20033;-64
2022/10/06 09:52:59;;;;;;;12.98;2.28;;;15.00;99.90;;;;;;5030716;28;20056;-64
2022/10/06 09:55:50;;;;;;;18.33;2.72;;;15.30;99.90;;;;;;5023072;28;20038;-62
2022/10/06 09:58:24;;;;;;;12.60;2.10;;;15.30;99.90;;;;;;5022484;28;20125;-64
2022/10/06 10:01:24;;;;;;;11.35;2.00;;;15.40;99.90;;;;;;5023374;28;20043;-64
2022/10/06 10:04:01;;;;;;;15.20;2.50;;;15.50;99.90;;;;;;4988830;28;20115;-64
2022/10/06 10:06:28;;;;;;;11.55;2.38;;;15.50;99.90;;;;;;5031189;28;20045;-64
2022/10/06 10:09:25;;;;;;;9.90;2.15;;;15.50;99.90;;;;;;5026277;28;20548;-62
2022/10/06 10:12:29;;;;;;;12.07;2.17;;;15.60;99.90;;;;;;5021866;28;20442;-64
2022/10/06 10:14:58;;;;;;;9.10;1.67;;;15.70;99.90;;;;;;5023486;28;20069;-65
2022/10/06 10:17:33;;;;;;;7.22;2.22;;;15.80;99.90;;;;;;5005260;28;20045;-65
2022/10/06 10:20:01;;;;;;;6.90;1.80;;;15.80;99.90;;;;;;5028947;28;20037;-64
2022/10/06 10:22:34;;;;;;;8.50;2.20;;;15.90;99.90;;;;;;5029842;28;20033;-63
2022/10/06 10:25:07;;;;;;;16.42;2.15;;;16.00;99.90;;;;;;5027192;28;20116;-64
2022/10/06 10:28:18;;;;;;;7.07;2.00;;;16.00;99.90;;;;;;5023376;28;20045;-64
2022/10/06 10:30:49;;;;;;;8.50;2.33;;;16.00;99.90;;;;;;5029733;28;20124;-64
2022/10/06 10:33:35;;;;;;;6.22;1.83;;;16.10;99.90;;;;;;5030921;28;20041;-64
2022/10/06 10:36:04;;;;;;;10.65;2.50;;;16.00;99.90;;;;;;5027640;28;20037;-64
2022/10/06 10:38:30;;;;;;;9.77;2.00;;;15.90;99.90;;;;;;5030067;28;20041;-65
2022/10/06 10:41:08;;;;;;;10.07;2.30;;;16.00;99.90;;;;;;5029983;28;20142;-64
2022/10/06 10:43:45;;;;;;;10.82;2.30;;;16.10;99.90;;;;;;5023728;28;20152;-65
2022/10/06 10:46:22;;;;;;;8.13;2.13;;;16.00;99.90;;;;;;5018614;28;20033;-63
2022/10/06 10:48:57;;;;;;;8.60;2.90;;;15.90;99.90;;;;;;5033628;28;20045;-64
2022/10/06 10:51:28;;;;;;;8.10;2.70;;;15.60;99.90;;;;;;5026198;28;20042;-64
2022/10/06 10:54:14;;;;;;;12.80;3.03;;;15.50;99.90;;;;;;5031182;28;20542;-63
2022/10/06 10:56:41;;;;;;;9.35;2.75;;;15.40;99.90;;;;;;5037104;28;20045;-64
2022/10/06 10:59:24;;;;;;;10.52;3.10;;;15.50;99.90;;;;;;5028082;28;20046;-64
2022/10/06 11:01:53;;;;;;;9.18;2.38;;;15.60;99.90;;;;;;5036191;28;20117;-63
2022/10/06 11:04:19;;;;;;;14.20;2.60;;;15.90;99.90;;;;;;5037068;28;20103;-63
2022/10/06 11:07:10;;;;;;;9.88;2.13;;;16.00;99.90;;;;;;5029727;28;22289;-64
2022/10/06 11:09:53;;;;;;;8.47;2.33;;;16.10;99.90;;;;;;5023164;28;20437;-64
2022/10/06 11:12:53;;;;;;;11.60;1.85;;;16.10;99.90;;;;;;5035953;28;20790;-63
2022/10/06 11:15:43;;;;;;;8.70;2.28;;;16.00;99.90;;;;;;5036811;28;20049;-64
2022/10/06 11:18:16;;;;;;;8.52;1.83;;;16.10;99.90;;;;;;5025031;28;20073;-64
2022/10/06 11:20:45;;;;;;;10.10;1.60;;;16.30;99.90;;;;;;5027271;28;20492;-65
2022/10/06 11:23:35;;;;;;;9.90;2.05;;;16.40;99.90;;;;;;5036675;28;20124;-65
2022/10/06 11:26:23;;;;;;;12.00;2.13;;;16.50;99.90;;;;;;5029534;28;20033;-65
2022/10/06 11:29:18;;;;;;;10.32;1.83;;;16.20;99.90;;;;;;5036163;28;20091;-65
2022/10/06 11:32:25;;;;;;;7.78;2.03;;;16.30;99.90;;;;;;5036433;28;20037;-65
2022/10/06 11:34:51;;;;;;;7.10;1.85;;;16.50;99.90;;;;;;5031835;28;20487;-65
2022/10/06 11:37:41;;;;;;;6.55;1.63;;;16.70;99.90;;;;;;5027900;28;20040;-65
2022/10/06 11:40:19;;;;;;;9.32;2.22;;;16.90;99.90;;;;;;5028361;28;20041;-64
2022/10/06 11:43:32;;;;;;;5.05;1.70;;;16.90;99.90;;;;;;5027707;28;20094;-64
2022/10/06 11:46:11;;;;;;;6.95;1.70;;;16.90;99.90;;;;;;5016646;28;20120;-65
2022/10/06 11:48:37;;;;;;;7.47;1.58;;;16.80;99.90;;;;;;5036626;28;20033;-65
2022/10/06 11:51:24;;;;;;;6.75;1.63;;;16.90;99.90;;;;;;5030838;28;20091;-64
2022/10/06 11:53:51;;;;;;;8.23;1.67;;;17.00;99.90;;;;;;5027849;28;20521;-65
2022/10/06 11:56:22;;;;;;;7.43;1.60;;;17.20;99.90;;;;;;5035881;28;20112;-63
2022/10/06 11:58:50;;;;;;;10.55;2.30;;;17.30;99.90;;;;;;5025186;28;20033;-65
2022/10/06 12:01:31;;;;;;;6.63;1.67;;;17.20;99.90;;;;;;5026858;28;20373;-65
2022/10/06 12:04:08;;;;;;;5.80;1.40;;;17.10;99.00;;;;;;5013596;28;20034;-65
2022/10/06 12:06:43;;;;;;;10.20;1.65;;;17.00;99.20;;;;;;5026214;28;20037;-65
2022/10/06 12:09:24;;;;;;;6.72;1.70;;;17.00;99.50;;;;;;5032815;28;20057;-65
2022/10/06 12:11:52;;;;;;;8.07;1.77;;;17.10;99.40;;;;;;5033110;28;20037;-65
2022/10/06 12:14:44;;;;;;;10.30;1.95;;;17.00;99.80;;;;;;5019499;28;20189;-65
2022/10/06 12:17:25;;;;;;;8.35;1.88;;;17.10;99.40;;;;;;5026869;28;20045;-65
2022/10/06 12:19:50;;;;;;;5.95;1.60;;;17.30;99.90;;;;;;5018971;28;20034;-66
2022/10/06 12:22:24;;;;;;;8.75;2.35;;;17.40;99.90;;;;;;5027747;28;20526;-65
2022/10/06 12:24:56;;;;;;;5.78;1.80;;;17.30;99.90;;;;;;5023834;28;20034;-65
2022/10/06 12:27:47;;;;;;;7.43;1.90;;;17.10;99.90;;;;;;5036326;28;20046;-64
2022/10/06 12:30:13;;;;;;;10.55;1.80;;;17.20;99.90;;;;;;5026436;28;20037;-65
2022/10/06 12:32:47;;;;;;;15.23;1.63;;;17.10;99.90;;;;;;5023135;28;20068;-65
2022/10/06 12:35:41;;;;;;;8.27;1.40;;;17.20;99.10;;;;;;5031943;28;20819;-67
2022/10/06 12:38:30;;;;;;;5.15;1.50;;;17.10;97.60;;;;;;5032338;28;20053;-65
2022/10/06 12:40:56;;;;;;;7.10;1.80;;;17.10;97.20;;;;;;5026532;28;20514;-65
2022/10/06 12:43:22;;;;;;;6.93;1.30;;;17.20;98.30;;;;;;5032086;28;20550;-65
2022/10/06 12:45:55;;;;;;;5.47;1.38;;;17.20;98.30;;;;;;5032330;28;20037;-63
2022/10/06 12:48:42;;;;;;;6.70;1.60;;;17.30;98.30;;;;;;5028856;28;20048;-64
2022/10/06 12:51:17;;;;;;;7.15;1.92;;;17.30;96.80;;;;;;5026140;28;20045;-64
2022/10/06 12:53:55;;;;;;;7.53;1.48;;;17.30;96.40;;;;;;5032361;28;20049;-64
2022/10/06 12:56:27;;;;;;;5.05;1.10;;;17.20;96.70;;;;;;5025588;28;20048;-64
2022/10/06 12:58:53;;;;;;;5.35;1.40;;;17.30;97.10;;;;;;5025346;28;20044;-64
2022/10/06 13:01:21;;;;;;;10.10;1.30;;;17.30;97.50;;;;;;5031350;28;20033;-64
2022/10/06 13:03:48;;;;;;;7.53;1.52;;;17.30;97.90;;;;;;5026669;28;20044;-64
2022/10/06 13:06:20;;;;;;;4.03;1.13;;;17.40;97.70;;;;;;5026518;28;20071;-64
2022/10/06 13:09:00;;;;;;;;;;;17.40;97.20;;;;;;5031399;28;20599;-64
2022/10/06 13:11:26;;;;;;;4.63;1.42;;;17.30;95.60;;;;;;5016834;28;19995;-64
2022/10/06 13:14:15;;;;;;;9.50;1.58;;;17.30;96.30;;;;;;5028065;28;20073;-64
2022/10/06 13:16:47;;;;;;;4.50;1.20;;;17.30;96.30;;;;;;5031309;28;20610;-65